Time;durP1;ratioP1;P1;durP2;ratioP2;P2;SDS_P1;SDS_P2;PMS_P1;PMS_P2;Temp;Humidity;BMP_temperature;BMP_pressure;BME280_temperature;BME280_humidity;BME280_pressure;Samples;Min_cycle;Max_cycle;Signal;HPM_P1;HPM_P2
2023/08/09 00:01:32;;;;;;;2.05;1.00;;;;;;;15.77;88.61;101339.56;5014538;28;96746;-27
2023/08/09 00:03:57;;;;;;;2.40;1.25;;;;;;;15.76;88.35;101347.91;5015995;28;96751;-27
2023/08/09 00:06:22;;;;;;;2.45;1.38;;;;;;;15.73;88.79;101348.09;5015856;28;97592;-27
2023/08/09 00:08:48;;;;;;;4.30;1.40;;;;;;;15.64;88.73;101339.59;5015600;28;97461;-27
2023/08/09 00:11:13;;;;;;;1.42;1.08;;;;;;;15.64;88.78;101339.59;5015928;28;97257;-27
2023/08/09 00:13:39;;;;;;;1.20;0.90;;;;;;;15.61;87.94;101341.66;5016555;28;96896;-27
2023/08/09 00:16:05;;;;;;;4.38;1.30;;;;;;;15.55;88.91;101326.63;5015368;28;99605;-27
2023/08/09 00:18:30;;;;;;;2.42;1.33;;;;;;;15.56;89.35;101349.34;5013254;28;99962;-27
2023/08/09 00:20:55;;;;;;;2.05;1.13;;;;;;;15.49;89.44;101336.16;5015430;28;96624;-27
2023/08/09 00:23:21;;;;;;;1.73;1.20;;;;;;;15.49;88.67;101343.44;5015784;28;96819;-27
2023/08/09 00:25:46;;;;;;;2.70;1.33;;;;;;;15.46;89.59;101354.63;5015258;28;97875;-27
2023/08/09 00:28:12;;;;;;;2.15;1.38;;;;;;;15.41;89.46;101365.88;5015400;28;98017;-27
2023/08/09 00:30:37;;;;;;;2.13;1.20;;;;;;;15.39;89.08;101369.69;5015550;28;96611;-26
2023/08/09 00:33:03;;;;;;;3.50;1.33;;;;;;;15.39;89.59;101375.16;5015580;28;96830;-27
2023/08/09 00:35:30;;;;;;;2.53;1.48;;;;;;;15.38;89.75;101376.16;5015025;28;99448;-27
2023/08/09 00:37:56;;;;;;;2.13;1.33;;;;;;;15.32;89.72;101372.00;5013779;28;100731;-27
2023/08/09 00:40:22;;;;;;;3.35;1.63;;;;;;;15.34;89.65;101370.03;5014120;28;96721;-29
2023/08/09 00:42:47;;;;;;;2.45;1.33;;;;;;;15.30;89.73;101373.97;5015246;28;96827;-27
2023/08/09 00:45:13;;;;;;;2.65;1.25;;;;;;;15.29;89.39;101372.22;5014112;28;97462;-27
2023/08/09 00:47:38;;;;;;;2.60;1.45;;;;;;;15.23;89.41;101362.66;5014990;28;99104;-27
2023/08/09 00:50:05;;;;;;;1.67;1.10;;;;;;;15.26;89.67;101375.19;5015378;28;96569;-27
2023/08/09 00:52:30;;;;;;;3.60;1.42;;;;;;;15.24;89.63;101375.31;5013928;28;96904;-27
2023/08/09 00:54:57;;;;;;;2.70;1.48;;;;;;;15.23;89.59;101378.13;5014922;28;97552;-27
2023/08/09 00:57:22;;;;;;;2.50;1.42;;;;;;;15.16;89.93;101369.53;5013480;28;101286;-27
2023/08/09 00:59:48;;;;;;;3.00;1.17;;;;;;;15.17;90.04;101370.41;5013799;28;96746;-27
2023/08/09 01:02:13;;;;;;;3.90;1.33;;;;;;;15.14;90.37;101370.63;5015722;28;96855;-27
2023/08/09 01:04:39;;;;;;;2.20;1.25;;;;;;;15.12;90.18;101370.72;5014490;28;99279;-26
2023/08/09 01:07:20;;;;;;;2.45;1.40;;;;;;;15.11;90.91;101377.19;5013316;28;101055;-27
2023/08/09 01:09:49;;;;;;;2.65;1.27;;;;;;;15.02;90.08;101369.66;5013244;28;96629;-27
2023/08/09 01:12:19;;;;;;;1.67;1.25;;;;;;;15.09;89.78;101376.44;5014836;28;96801;-27
2023/08/09 01:14:50;;;;;;;2.13;1.33;;;;;;;15.07;90.30;101386.56;5013243;28;101540;-27
2023/08/09 01:17:17;;;;;;;2.05;1.27;;;;;;;15.05;90.06;101380.34;5013321;28;100897;-27
2023/08/09 01:19:53;;;;;;;1.83;1.17;;;;;;;15.02;89.98;101378.72;5013487;28;96606;-27
2023/08/09 01:22:27;;;;;;;2.42;1.30;;;;;;;15.05;90.13;101385.81;5014731;28;96877;-28
2023/08/09 01:24:53;;;;;;;2.55;1.17;;;;;;;15.03;90.06;101385.03;5013220;28;98879;-26
2023/08/09 01:27:19;;;;;;;2.28;1.40;;;;;;;15.02;90.29;101386.03;5013331;28;101051;-26
2023/08/09 01:29:44;;;;;;;1.98;1.23;;;;;;;15.02;90.65;101394.22;5014652;28;96464;-27
2023/08/09 01:32:11;;;;;;;4.97;1.40;;;;;;;14.97;90.37;101388.19;5013220;28;96821;-27
2023/08/09 01:34:37;;;;;;;2.97;1.17;;;;;;;14.94;90.45;101383.84;5013834;28;97941;-27
2023/08/09 01:37:10;;;;;;;1.50;1.08;;;;;;;14.95;90.72;101379.28;5012824;28;101075;-27
2023/08/09 01:39:38;;;;;;;1.77;1.30;;;;;;;14.97;90.55;101394.53;5013298;28;96630;-27
2023/08/09 01:42:05;;;;;;;2.55;1.35;;;;;;;14.96;90.83;101384.59;5013197;28;96934;-27
2023/08/09 01:44:31;;;;;;;2.05;1.42;;;;;;;14.95;90.64;101401.09;5012402;28;101287;-27
2023/08/09 01:46:57;;;;;;;2.65;1.15;;;;;;;14.93;90.43;101386.69;5013856;28;99365;-27
2023/08/09 01:49:23;;;;;;;1.73;1.13;;;;;;;14.97;90.36;101396.38;5013007;28;96756;-27
2023/08/09 01:51:49;;;;;;;1.85;1.13;;;;;;;14.91;90.41;101375.88;5013590;28;96838;-27
2023/08/09 01:54:17;;;;;;;3.33;1.60;;;;;;;14.98;90.18;101395.41;5014022;28;98906;-28
2023/08/09 01:56:43;;;;;;;2.05;1.13;;;;;;;14.95;89.84;101384.72;5012675;28;101009;-26
2023/08/09 01:59:09;;;;;;;2.60;1.50;;;;;;;14.98;90.19;101396.28;5012423;28;96610;-27
2023/08/09 02:01:35;;;;;;;3.13;1.73;;;;;;;14.94;90.39;101394.75;5012879;28;96993;-27
2023/08/09 02:04:01;;;;;;;2.22;1.27;;;;;;;14.93;90.66;101395.75;5012550;28;100819;-27
2023/08/09 02:06:27;;;;;;;1.90;1.27;;;;;;;14.96;90.91;101400.09;5012552;28;100885;-27
2023/08/09 02:08:52;;;;;;;2.08;1.30;;;;;;;14.93;91.09;101406.66;5014251;28;96654;-27
2023/08/09 02:11:17;;;;;;;2.35;1.52;;;;;;;14.84;91.50;101399.97;5014173;28;96873;-27
2023/08/09 02:13:43;;;;;;;2.08;1.40;;;;;;;14.91;91.03;101405.88;5012486;28;97996;-27
2023/08/09 02:16:09;;;;;;;1.92;1.25;;;;;;;14.95;90.74;101422.91;5014250;28;97829;-27
2023/08/09 02:18:35;;;;;;;4.50;1.77;;;;;;;14.92;90.98;101425.84;5014328;28;96486;-27
2023/08/09 02:21:02;;;;;;;3.38;1.77;;;;;;;14.87;91.03;101426.16;5014203;28;96843;-27
2023/08/09 02:23:28;;;;;;;2.97;1.55;;;;;;;14.84;90.62;101419.06;5011995;28;98815;-26
2023/08/09 02:25:54;;;;;;;3.20;1.52;;;;;;;14.86;91.34;101427.16;5012328;28;101625;-27
2023/08/09 02:28:20;;;;;;;2.90;1.73;;;;;;;14.89;91.25;101437.84;5012641;28;96612;-29
2023/08/09 02:30:46;;;;;;;5.45;1.25;;;;;;;14.88;91.09;101437.97;5012451;28;96977;-27
2023/08/09 02:33:11;;;;;;;2.92;1.63;;;;;;;14.84;91.37;101429.97;5012267;28;101067;-26
2023/08/09 02:35:59;;;;;;;4.97;2.05;;;;;;;14.88;90.92;101435.25;5013733;28;97845;-27
2023/08/09 02:38:25;;;;;;;2.88;1.63;;;;;;;14.87;91.11;101437.06;5012192;28;96945;-28
2023/08/09 02:40:52;;;;;;;2.53;1.67;;;;;;;14.85;91.47;101442.66;5014276;28;96923;-28
2023/08/09 02:43:18;;;;;;;3.40;1.60;;;;;;;14.85;91.02;101448.13;5015522;28;101637;-27
2023/08/09 02:45:44;;;;;;;3.40;2.00;;;;;;;14.83;91.11;101444.63;5015398;28;100953;-27
2023/08/09 02:48:10;;;;;;;3.00;1.92;;;;;;;14.82;91.27;101429.22;5016871;28;96610;-27
2023/08/09 02:50:36;;;;;;;4.00;1.85;;;;;;;14.85;91.33;101444.53;5015709;28;96810;-27
2023/08/09 02:53:03;;;;;;;2.88;1.60;;;;;;;14.88;91.58;101446.16;5016594;28;99252;-28
2023/08/09 02:55:30;;;;;;;3.80;2.22;;;;;;;14.88;90.87;101443.44;5016734;28;96982;-27
2023/08/09 02:57:55;;;;;;;3.10;2.17;;;;;;;14.88;90.90;101446.16;5015505;28;96581;-28
2023/08/09 03:00:21;;;;;;;4.65;2.30;;;;;;;14.89;91.38;101442.44;5017315;28;96781;-26
2023/08/09 03:02:46;;;;;;;2.85;2.17;;;;;;;14.88;92.07;101446.16;5016232;28;99408;-27
2023/08/09 03:05:11;;;;;;;4.00;2.15;;;;;;;14.93;91.53;101452.16;5017165;28;97806;-27
2023/08/09 03:07:37;;;;;;;3.30;2.15;;;;;;;14.95;91.66;101450.19;5017124;28;96461;-27
2023/08/09 03:10:03;;;;;;;4.22;2.40;;;;;;;14.91;91.36;101445.94;5016872;28;96764;-28
2023/08/09 03:12:30;;;;;;;3.75;2.25;;;;;;;14.96;91.09;101454.66;5014703;28;100145;-26
2023/08/09 03:14:55;;;;;;;3.85;2.33;;;;;;;14.93;91.69;101452.16;5014931;28;101228;-26
2023/08/09 03:17:21;;;;;;;4.22;2.33;;;;;;;14.96;91.14;101457.38;5016918;28;96596;-27
2023/08/09 03:19:46;;;;;;;4.15;2.33;;;;;;;14.94;90.91;101452.03;5016644;28;96789;-27
2023/08/09 03:22:12;;;;;;;5.15;2.60;;;;;;;14.98;91.67;101461.75;5016409;28;97490;-26
2023/08/09 03:24:38;;;;;;;4.65;2.67;;;;;;;14.94;91.70;101453.91;5016450;28;97785;-30
2023/08/09 03:27:03;;;;;;;5.28;2.45;;;;;;;14.94;91.38;101448.44;5015155;28;96729;-28
2023/08/09 03:29:29;;;;;;;4.53;2.92;;;;;;;14.94;92.08;101462.06;5016991;28;96715;-28
2023/08/09 03:31:54;;;;;;;6.80;2.55;;;;;;;14.97;91.16;101467.31;5016250;28;98009;-27
2023/08/09 03:34:20;;;;;;;4.93;2.67;;;;;;;14.97;91.22;101470.03;5016345;28;97828;-26
2023/08/09 03:36:45;;;;;;;4.80;2.55;;;;;;;14.93;91.76;101473.97;5016208;28;96495;-27
2023/08/09 03:39:11;;;;;;;4.57;2.50;;;;;;;14.92;91.88;101473.13;5014982;28;96897;-27
2023/08/09 03:41:36;;;;;;;4.07;2.25;;;;;;;14.90;91.66;101466.00;5015994;28;98950;-27
2023/08/09 03:44:02;;;;;;;6.45;2.88;;;;;;;14.85;91.90;101461.75;5015338;28;97892;-27
2023/08/09 03:46:28;;;;;;;6.10;3.15;;;;;;;14.92;92.22;101472.22;5015049;28;96649;-26
2023/08/09 03:48:53;;;;;;;4.88;2.72;;;;;;;14.92;92.02;101473.13;5016156;28;96851;-27
2023/08/09 03:51:19;;;;;;;4.65;2.75;;;;;;;14.93;91.74;101482.16;5015266;28;99297;-27
2023/08/09 03:53:44;;;;;;;4.78;2.88;;;;;;;14.89;92.24;101478.75;5015680;28;97787;-27
2023/08/09 03:56:10;;;;;;;4.93;2.45;;;;;;;14.87;91.67;101483.44;5016253;28;96794;-27
2023/08/09 03:58:36;;;;;;;4.38;2.60;;;;;;;14.89;91.00;101494.25;5016340;28;96691;-27
2023/08/09 04:01:02;;;;;;;4.65;2.75;;;;;;;14.90;91.62;101487.81;5015524;28;98146;-27
2023/08/09 04:03:27;;;;;;;4.95;2.70;;;;;;;14.88;91.64;101492.53;5015597;28;97315;-27
2023/08/09 04:05:53;;;;;;;4.60;2.75;;;;;;;14.88;92.29;101492.53;5016176;28;96702;-27
2023/08/09 04:08:21;;;;;;;5.68;2.85;;;;;;;14.91;92.15;101503.22;5016117;28;96747;-28
2023/08/09 04:10:47;;;;;;;4.57;2.85;;;;;;;14.91;92.07;101505.94;5013958;28;98877;-27
2023/08/09 04:13:12;;;;;;;6.40;3.20;;;;;;;14.90;91.92;101499.63;5014307;28;100513;-27
2023/08/09 04:15:37;;;;;;;4.07;2.78;;;;;;;14.92;92.07;101508.59;5015939;28;96654;-27
2023/08/09 04:18:03;;;;;;;5.25;2.95;;;;;;;14.91;91.64;101506.81;5016101;28;96850;-27
2023/08/09 04:20:29;;;;;;;6.13;2.95;;;;;;;14.89;91.92;101495.13;5015433;28;99338;-26
2023/08/09 04:22:54;;;;;;;6.53;2.75;;;;;;;14.90;92.05;101513.25;5015231;28;99087;-27
2023/08/09 04:25:19;;;;;;;5.35;2.72;;;;;;;14.92;91.94;101516.75;5015291;28;96757;-27
2023/08/09 04:27:45;;;;;;;4.03;2.30;;;;;;;14.92;92.56;101521.31;5015886;28;96769;-27
2023/08/09 04:30:12;;;;;;;5.82;2.67;;;;;;;14.91;92.28;101525.91;5015302;28;97959;-27
2023/08/09 04:32:40;;;;;;;4.65;2.45;;;;;;;14.92;92.71;101526.78;5013816;28;101113;-27
2023/08/09 04:35:07;;;;;;;4.40;2.78;;;;;;;14.97;92.19;101532.78;5014118;28;96709;-28
2023/08/09 04:37:32;;;;;;;5.38;3.00;;;;;;;14.98;92.49;101529.97;5014014;28;96889;-30
2023/08/09 04:39:58;;;;;;;5.13;2.80;;;;;;;15.00;93.08;101527.13;5015158;28;98080;-27
2023/08/09 04:42:23;;;;;;;3.22;2.25;;;;;;;15.02;92.44;101533.38;5015418;28;99300;-26
2023/08/09 04:44:49;;;;;;;5.20;3.03;;;;;;;15.03;91.91;101529.66;5014923;28;96790;-28
2023/08/09 04:47:15;;;;;;;3.90;2.38;;;;;;;14.96;92.70;101517.41;5015505;28;96872;-27
2023/08/09 04:49:41;;;;;;;6.38;3.25;;;;;;;15.04;92.33;101528.66;5013083;28;101478;-27
2023/08/09 04:52:06;;;;;;;5.95;2.80;;;;;;;15.09;92.51;101540.16;5015085;28;97732;-27
2023/08/09 04:54:32;;;;;;;6.53;3.05;;;;;;;15.10;91.96;101541.00;5015028;28;96678;-27
2023/08/09 04:56:57;;;;;;;6.35;2.83;;;;;;;15.13;91.93;101544.38;5013873;28;96837;-27
2023/08/09 04:59:23;;;;;;;4.68;2.40;;;;;;;15.16;91.69;101541.47;5014986;28;97341;-27
2023/08/09 05:01:49;;;;;;;3.97;2.45;;;;;;;15.19;92.01;101541.25;5014644;28;99350;-27
2023/08/09 05:04:14;;;;;;;6.05;2.50;;;;;;;15.20;92.07;101537.53;5014677;28;97231;-27
2023/08/09 05:06:40;;;;;;;5.65;2.92;;;;;;;15.20;91.56;101526.59;5015963;28;96791;-27
2023/08/09 05:09:05;;;;;;;5.40;2.60;;;;;;;15.16;91.28;101519.63;5014252;28;99152;-27
2023/08/09 05:11:31;;;;;;;3.63;2.25;;;;;;;15.29;91.84;101536.00;5013285;28;101507;-27
2023/08/09 05:13:56;;;;;;;4.20;2.22;;;;;;;15.28;91.63;101547.94;5014823;28;96568;-27
2023/08/09 05:16:24;;;;;;;4.32;2.72;;;;;;;15.28;91.92;101548.78;5015198;28;96796;-28
2023/08/09 05:18:51;;;;;;;3.95;2.45;;;;;;;15.26;91.42;101542.56;5013177;28;101444;-26
2023/08/09 05:21:16;;;;;;;4.05;2.58;;;;;;;15.34;91.89;101543.88;5013087;28;100958;-26
2023/08/09 05:23:42;;;;;;;4.10;2.35;;;;;;;15.31;91.76;101535.91;5014628;28;96696;-27
2023/08/09 05:26:07;;;;;;;3.15;1.90;;;;;;;15.33;91.35;101544.88;5015008;28;96938;-27
2023/08/09 05:28:32;;;;;;;4.35;2.40;;;;;;;15.33;91.15;101553.06;5014668;28;97415;-27
2023/08/09 05:30:58;;;;;;;4.07;2.47;;;;;;;15.35;91.78;101548.34;5014732;28;97312;-27
2023/08/09 05:33:23;;;;;;;5.10;2.50;;;;;;;15.32;91.78;101543.97;5014525;28;96481;-29
2023/08/09 05:35:48;;;;;;;5.03;2.35;;;;;;;15.27;91.99;101548.88;5014763;28;96756;-27
2023/08/09 05:38:14;;;;;;;5.18;2.22;;;;;;;15.34;92.24;101554.78;5013665;28;97429;-26
2023/08/09 05:40:39;;;;;;;3.97;2.15;;;;;;;15.25;92.00;101545.38;5014143;28;99518;-27
2023/08/09 05:43:04;;;;;;;4.05;2.42;;;;;;;15.26;91.87;101558.94;5014727;28;96572;-27
2023/08/09 05:45:30;;;;;;;4.38;2.53;;;;;;;15.29;91.97;101563.31;5014466;28;96778;-27
2023/08/09 05:47:55;;;;;;;4.57;2.40;;;;;;;15.27;92.25;101574.31;5014135;28;99217;-27
2023/08/09 05:50:20;;;;;;;3.75;2.25;;;;;;;15.29;92.25;101569.63;5013935;28;99186;-27
2023/08/09 05:52:46;;;;;;;3.28;2.35;;;;;;;15.27;92.39;101574.31;5014447;28;96694;-29
2023/08/09 05:55:11;;;;;;;3.78;2.22;;;;;;;15.32;91.91;101581.31;5014922;28;96803;-27
2023/08/09 05:57:37;;;;;;;4.28;2.17;;;;;;;15.31;92.20;101588.66;5014233;28;97901;-27
2023/08/09 06:00:05;;;;;;;4.63;2.40;;;;;;;15.32;92.30;101592.25;5014181;28;98359;-28
2023/08/09 06:02:33;;;;;;;3.72;2.22;;;;;;;15.31;92.01;101587.78;5013860;28;96604;-27
2023/08/09 06:05:00;;;;;;;2.75;1.85;;;;;;;15.35;92.65;101598.38;5014310;28;96825;-27
2023/08/09 06:07:25;;;;;;;4.80;2.50;;;;;;;15.31;93.04;101591.38;5012521;28;101547;-27
2023/08/09 06:09:51;;;;;;;4.13;2.30;;;;;;;15.38;92.39;101603.63;5013882;28;97356;-27
2023/08/09 06:12:16;;;;;;;4.53;2.67;;;;;;;15.39;92.37;101605.34;5014382;28;96775;-27
2023/08/09 06:14:42;;;;;;;4.93;2.88;;;;;;;15.40;92.63;101596.19;5014484;28;96740;-26
2023/08/09 06:17:07;;;;;;;3.50;2.20;;;;;;;15.55;92.15;101598.84;5017362;28;98599;-27
2023/08/09 06:19:33;;;;;;;3.97;2.45;;;;;;;15.65;92.39;101594.47;5017844;28;97759;-27
2023/08/09 06:21:59;;;;;;;5.28;2.42;;;;;;;15.77;91.47;101592.75;5015948;28;96752;-27
2023/08/09 06:24:24;;;;;;;3.47;2.20;;;;;;;15.90;92.99;101597.22;5016090;28;96837;-29
2023/08/09 06:26:50;;;;;;;4.10;1.85;;;;;;;16.03;92.64;101601.78;5016679;28;98967;-27
2023/08/09 06:29:15;;;;;;;5.07;2.60;;;;;;;16.12;91.48;101607.47;5016985;28;99214;-27
2023/08/09 06:31:41;;;;;;;3.90;2.00;;;;;;;16.20;91.23;101603.28;5016171;28;96920;-27
2023/08/09 06:34:08;;;;;;;3.58;2.08;;;;;;;16.18;92.35;101614.31;5015318;28;96800;-27
2023/08/09 06:36:34;;;;;;;3.28;1.85;;;;;;;16.30;91.45;101620.75;5013402;28;101363;-30
2023/08/09 06:38:59;;;;;;;3.47;2.00;;;;;;;16.41;91.23;101611.78;5016130;28;97517;-27
2023/08/09 06:41:24;;;;;;;3.28;1.98;;;;;;;16.43;90.86;101607.94;5015667;28;97172;-28
2023/08/09 06:43:50;;;;;;;3.65;1.80;;;;;;;16.50;91.44;101609.22;5017757;28;96694;-28
2023/08/09 06:46:15;;;;;;;3.38;1.95;;;;;;;16.63;90.31;101616.53;5016873;28;97927;-27
2023/08/09 06:48:41;;;;;;;2.25;1.30;;;;;;;16.74;89.99;101620.19;5017124;28;97256;-27
2023/08/09 06:51:06;;;;;;;2.47;1.52;;;;;;;16.89;91.09;101614.59;5015199;28;96707;-30
2023/08/09 06:53:31;;;;;;;3.67;1.85;;;;;;;17.09;90.02;101618.53;5014532;28;96808;-27
2023/08/09 06:55:57;;;;;;;3.92;2.03;;;;;;;17.22;88.98;101622.09;5014870;28;97741;-27
2023/08/09 06:58:22;;;;;;;2.08;1.35;;;;;;;17.34;88.88;101632.06;5015231;28;97319;-27
2023/08/09 07:00:48;;;;;;;2.28;1.42;;;;;;;17.47;90.20;101625.63;5015312;28;97023;-27
2023/08/09 07:03:14;;;;;;;3.65;1.48;;;;;;;17.56;89.20;101623.03;5014711;28;97082;-32
2023/08/09 07:05:41;;;;;;;2.78;1.48;;;;;;;17.67;88.43;101635.91;5015124;28;97944;-27
2023/08/09 07:08:06;;;;;;;2.10;1.35;;;;;;;17.63;88.60;101624.31;5015695;28;101015;-27
2023/08/09 07:10:32;;;;;;;2.00;1.30;;;;;;;17.75;87.90;101619.72;5016979;28;97251;-27
2023/08/09 07:12:57;;;;;;;2.45;1.27;;;;;;;17.86;88.55;101637.22;5016693;28;96806;-27
2023/08/09 07:15:23;;;;;;;2.90;1.25;;;;;;;17.99;88.07;101635.22;5015866;28;99271;-27
2023/08/09 07:17:48;;;;;;;1.70;1.17;;;;;;;18.05;87.18;101626.53;5016499;28;97222;-27
2023/08/09 07:20:14;;;;;;;1.25;0.95;;;;;;;18.21;87.87;101621.56;5016561;28;96691;-28
2023/08/09 07:22:41;;;;;;;2.63;1.60;;;;;;;18.30;87.48;101621.78;5016860;28;96752;-26
2023/08/09 07:25:10;;;;;;;3.35;1.38;;;;;;;18.25;87.36;101630.38;5016342;28;97433;-29
2023/08/09 07:27:45;;;;;;;1.75;1.08;;;;;;;18.17;88.03;101616.44;5016114;28;97930;-30
2023/08/09 07:30:13;;;;;;;2.70;1.27;;;;;;;18.35;87.82;101633.25;5015160;28;96599;-26
2023/08/09 07:32:40;;;;;;;2.33;1.40;;;;;;;18.53;87.60;101629.00;5016860;28;96756;-27
2023/08/09 07:35:06;;;;;;;2.20;1.05;;;;;;;18.65;85.98;101638.94;5016245;28;97496;-28
2023/08/09 07:37:34;;;;;;;1.98;0.93;;;;;;;18.70;86.03;101633.06;5014330;28;102149;-28
2023/08/09 07:39:59;;;;;;;1.77;0.90;;;;;;;18.73;84.60;101629.19;5014587;28;96601;-27
2023/08/09 07:42:25;;;;;;;2.03;1.05;;;;;;;18.88;85.28;101647.19;5016525;28;96765;-27
2023/08/09 07:44:51;;;;;;;1.40;1.08;;;;;;;19.05;85.29;101637.50;5015675;28;99305;-27
2023/08/09 07:47:16;;;;;;;0.85;0.80;;;;;;;19.15;84.14;101635.72;5015605;28;99315;-26
2023/08/09 07:49:42;;;;;;;1.02;0.80;;;;;;;19.09;83.48;101631.63;5016307;28;96571;-26
2023/08/09 07:52:07;;;;;;;2.00;0.98;;;;;;;19.28;84.82;101649.25;5016481;28;96819;-27
2023/08/09 07:54:33;;;;;;;1.58;1.00;;;;;;;19.37;83.44;101648.47;5016045;28;98469;-28
2023/08/09 07:56:58;;;;;;;3.58;1.00;;;;;;;19.44;83.59;101652.44;5016464;28;97749;-29
2023/08/09 07:59:23;;;;;;;1.20;0.70;;;;;;;19.51;83.37;101650.91;5016115;28;96686;-27
2023/08/09 08:01:49;;;;;;;3.10;0.93;;;;;;;19.62;82.72;101655.47;5015883;28;96845;-27
2023/08/09 08:04:14;;;;;;;2.60;0.98;;;;;;;19.63;82.26;101659.97;5015379;28;97378;-27
2023/08/09 08:06:39;;;;;;;2.25;1.05;;;;;;;19.63;82.10;101667.34;5015930;28;97325;-26
2023/08/09 08:09:05;;;;;;;3.70;0.63;;;;;;;19.34;81.89;101665.22;5016230;28;96604;-27
2023/08/09 08:11:31;;;;;;;3.08;0.80;;;;;;;19.33;81.81;101666.25;5016159;28;96846;-27
2023/08/09 08:13:57;;;;;;;2.80;0.68;;;;;;;19.49;82.76;101669.41;5015673;28;98413;-27
2023/08/09 08:16:23;;;;;;;1.52;0.63;;;;;;;19.70;81.69;101672.19;5013971;28;101339;-27
2023/08/09 08:18:48;;;;;;;1.05;0.90;;;;;;;19.91;81.26;101666.69;5015987;28;96449;-28
2023/08/09 08:21:14;;;;;;;2.08;1.00;;;;;;;20.05;80.66;101667.38;5016251;28;96789;-27
2023/08/09 08:23:39;;;;;;;1.58;1.05;;;;;;;19.96;79.17;101673.69;5015662;28;97442;-26
2023/08/09 08:26:05;;;;;;;3.22;0.77;;;;;;;19.71;80.63;101682.22;5015673;28;96853;-26
2023/08/09 08:28:30;;;;;;;1.40;0.82;;;;;;;19.70;81.21;101677.69;5013798;28;96646;-26
2023/08/09 08:30:56;;;;;;;1.27;0.80;;;;;;;19.89;80.77;101676.97;5015328;28;96831;-27
2023/08/09 08:33:21;;;;;;;1.33;0.85;;;;;;;20.01;79.32;101677.75;5015433;28;97918;-26
2023/08/09 08:35:48;;;;;;;1.75;1.20;;;;;;;19.90;80.01;101691.56;5015433;28;97788;-26
2023/08/09 08:38:15;;;;;;;2.08;1.00;;;;;;;19.79;80.85;101692.53;5013216;28;96614;-27
2023/08/09 08:40:42;;;;;;;1.13;0.70;;;;;;;19.52;81.34;101682.91;5015689;28;96768;-27
2023/08/09 08:43:08;;;;;;;1.83;0.90;;;;;;;19.38;82.49;101680.47;5013800;28;101068;-26
2023/08/09 08:45:36;;;;;;;1.52;1.10;;;;;;;19.70;81.84;101696.06;5013376;28;100812;-28
2023/08/09 08:48:03;;;;;;;2.60;1.10;;;;;;;20.08;80.41;101687.22;5014027;28;96609;-27
2023/08/09 08:50:30;;;;;;;1.45;0.93;;;;;;;20.33;79.57;101685.91;5013820;28;96899;-26
2023/08/09 08:52:56;;;;;;;2.55;0.93;;;;;;;20.56;78.57;101702.25;5013099;28;99153;-26
2023/08/09 08:55:22;;;;;;;2.40;1.08;;;;;;;20.26;78.60;101695.72;5014849;28;99185;-27
2023/08/09 08:57:47;;;;;;;2.85;1.45;;;;;;;20.02;78.67;101708.88;5015365;28;97167;-27
2023/08/09 09:00:16;;;;;;;2.63;1.42;;;;;;;19.73;79.36;101702.19;5015227;28;96733;-26
2023/08/09 09:02:46;;;;;;;4.57;1.48;;;;;;;19.78;79.73;101703.66;5014679;28;99036;-27
2023/08/09 09:05:18;;;;;;;2.08;1.23;;;;;;;20.22;79.47;101719.00;5013520;28;101091;-27
2023/08/09 09:07:45;;;;;;;1.75;1.25;;;;;;;20.27;77.52;101715.84;5014939;28;96467;-27
2023/08/09 09:10:12;;;;;;;2.38;1.42;;;;;;;20.53;77.24;101716.25;5015199;28;96815;-26
2023/08/09 09:12:39;;;;;;;6.78;1.52;;;;;;;20.79;75.41;101714.81;5013326;28;100858;-27
2023/08/09 09:15:06;;;;;;;2.67;1.33;;;;;;;21.08;75.39;101702.13;5013211;28;101007;-26
2023/08/09 09:17:44;;;;;;;1.88;1.15;;;;;;;21.37;74.64;101713.19;5013025;28;97006;-27
2023/08/09 09:20:21;;;;;;;1.85;1.20;;;;;;;21.55;74.22;101708.72;5014906;28;96848;-27
2023/08/09 09:22:47;;;;;;;2.88;1.10;;;;;;;21.72;72.22;101700.75;5014769;28;97926;-27
2023/08/09 09:25:14;;;;;;;4.57;1.23;;;;;;;21.90;71.07;101701.72;5014470;28;97787;-27
2023/08/09 09:27:40;;;;;;;1.75;1.15;;;;;;;22.14;71.70;101708.63;5013500;28;96638;-27
2023/08/09 09:30:14;;;;;;;2.22;1.30;;;;;;;22.12;71.35;101708.81;5013385;28;96820;-26
2023/08/09 09:32:51;;;;;;;1.92;1.10;;;;;;;21.75;71.57;101714.22;5014445;28;99427;-27
2023/08/09 09:35:17;;;;;;;2.80;1.20;;;;;;;21.63;72.39;101706.09;5014951;28;97555;-26
2023/08/09 09:37:49;;;;;;;1.42;1.00;;;;;;;21.81;71.99;101705.38;5013083;28;96925;-27
2023/08/09 09:40:24;;;;;;;;;;;;;;;21.82;68.25;101699.69;5013804;28;96752;-27
2023/08/09 09:42:54;;;;;;;2.50;0.70;;;;;;;21.63;68.47;101714.38;5012599;28;100751;-27
2023/08/09 09:45:27;;;;;;;1.67;0.93;;;;;;;21.34;69.89;101714.34;5012191;28;101087;-27
2023/08/09 09:47:54;;;;;;;3.78;0.95;;;;;;;21.02;68.96;101700.78;5013590;28;96614;-26
2023/08/09 09:50:24;;;;;;;3.05;1.00;;;;;;;20.76;72.41;101709.59;5013759;28;96871;-27
2023/08/09 09:52:50;;;;;;;3.15;0.88;;;;;;;20.48;72.78;101702.91;5017646;28;99460;-27
2023/08/09 09:55:19;;;;;;;1.42;0.73;;;;;;;20.54;72.90;101718.84;5016383;28;100517;-26
2023/08/09 09:57:45;;;;;;;1.80;0.80;;;;;;;21.00;72.18;101728.50;5018027;28;96490;-26
2023/08/09 10:00:11;;;;;;;2.45;0.80;;;;;;;21.30;70.33;101715.63;5016958;28;96920;-26
2023/08/09 10:02:48;;;;;;;2.67;1.08;;;;;;;21.67;69.89;101741.69;5017389;28;99997;-26
2023/08/09 10:05:19;;;;;;;2.20;1.13;;;;;;;21.90;68.12;101733.94;5017644;28;99641;-26
2023/08/09 10:07:46;;;;;;;2.23;0.70;;;;;;;21.74;66.73;101746.47;5015882;28;96737;-27
2023/08/09 10:10:13;;;;;;;1.88;0.90;;;;;;;21.29;66.52;101735.09;5016275;28;96816;-26
2023/08/09 10:12:42;;;;;;;2.53;0.80;;;;;;;21.11;67.80;101737.66;5016204;28;100839;-27
2023/08/09 10:15:12;;;;;;;1.10;0.60;;;;;;;21.31;68.43;101744.94;5016055;28;100814;-28
2023/08/09 10:17:40;;;;;;;1.85;0.82;;;;;;;21.68;67.41;101744.28;5016410;28;96657;-27
2023/08/09 10:20:10;;;;;;;2.63;0.90;;;;;;;22.03;65.36;101743.69;5016336;28;96526;-26
2023/08/09 10:22:36;;;;;;;2.75;0.70;;;;;;;22.35;66.02;101744.38;5017315;28;98458;-27
2023/08/09 10:25:01;;;;;;;1.45;0.80;;;;;;;22.52;65.61;101759.28;5016218;28;100913;-27
2023/08/09 10:27:49;;;;;;;1.67;0.98;;;;;;;22.69;63.42;101762.13;5017876;28;96559;-27
2023/08/09 10:30:17;;;;;;;2.63;1.30;;;;;;;22.51;64.95;101761.19;5015999;28;96879;-26
2023/08/09 10:32:53;;;;;;;2.15;1.00;;;;;;;22.47;63.06;101765.25;5016539;28;99343;-26
2023/08/09 10:35:20;;;;;;;1.35;0.73;;;;;;;22.38;63.90;101768.91;5016907;28;99864;-26
2023/08/09 10:37:47;;;;;;;5.00;0.90;;;;;;;22.19;63.91;101772.53;5015909;28;96909;-27
2023/08/09 10:40:16;;;;;;;2.40;0.70;;;;;;;21.82;66.35;101774.19;5015785;28;96680;-27
2023/08/09 10:42:45;;;;;;;2.00;0.80;;;;;;;21.51;66.41;101776.19;5016738;28;99312;-27
2023/08/09 10:45:11;;;;;;;2.45;0.68;;;;;;;21.32;66.49;101767.88;5015304;28;100992;-27
2023/08/09 10:47:39;;;;;;;3.42;1.05;;;;;;;21.66;65.41;101775.78;5015893;28;96725;-27
2023/08/09 10:50:13;;;;;;;2.22;0.75;;;;;;;22.01;63.95;101778.81;5016074;28;96840;-27
2023/08/09 10:52:48;;;;;;;1.05;0.65;;;;;;;22.30;64.51;101772.41;5015444;28;100855;-27
2023/08/09 10:55:20;;;;;;;1.52;0.60;;;;;;;22.25;63.43;101777.50;5016740;28;99305;-26
2023/08/09 10:57:50;;;;;;;3.78;0.65;;;;;;;22.12;64.16;101772.28;5016594;28;96518;-27
2023/08/09 11:00:16;;;;;;;0.98;0.60;;;;;;;22.36;63.32;101771.84;5017413;28;96456;-27
2023/08/09 11:02:46;;;;;;;1.13;0.57;;;;;;;22.57;61.80;101787.31;5014677;28;100867;-27
2023/08/09 11:05:12;;;;;;;2.90;1.05;;;;;;;22.23;61.14;101779.53;5015348;28;100844;-26
2023/08/09 11:07:49;;;;;;;1.45;0.68;;;;;;;22.03;61.35;101784.19;5017168;28;96511;-26
2023/08/09 11:10:17;;;;;;;0.73;0.50;;;;;;;22.02;63.92;101782.44;5015540;28;96805;-27
2023/08/09 11:12:44;;;;;;;2.88;0.63;;;;;;;22.05;60.79;101798.72;5015157;28;98998;-26
2023/08/09 11:15:11;;;;;;;0.50;0.50;;;;;;;22.32;59.95;101795.22;5015542;28;101018;-27
2023/08/09 11:17:47;;;;;;;2.85;1.10;;;;;;;22.45;59.90;101789.38;5015314;28;96636;-27
2023/08/09 11:20:13;;;;;;;1.88;0.50;;;;;;;22.58;61.63;101805.63;5015520;28;96736;-27
2023/08/09 11:22:44;;;;;;;0.90;0.38;;;;;;;22.31;60.31;101799.03;5014511;28;102242;-27